createdAt,value
2022-10-26T00:03:24.747Z,52.47
2022-10-26T00:05:58.065Z,53.00
2022-10-26T00:08:28.957Z,52.64
2022-10-26T00:11:00.349Z,53.13
2022-10-26T00:13:30.454Z,52.83
2022-10-26T00:18:37.542Z,52.54
2022-10-26T01:04:40.899Z,53.07
2022-10-26T01:07:12.282Z,54.37
2022-10-26T01:09:42.593Z,53.07
2022-10-26T01:12:12.562Z,53.25
2022-10-26T01:14:43.587Z,52.88
2022-10-26T01:17:47.773Z,53.03
2022-10-26T01:20:24.015Z,53.32
2022-10-26T01:23:00.497Z,53.64
2022-10-26T01:25:48.936Z,53.06
2022-10-26T01:28:56.273Z,52.55
2022-10-26T01:31:39.776Z,52.43
2022-10-26T01:34:45.023Z,52.49
2022-10-26T01:37:24.245Z,52.58
2022-10-26T01:40:02.868Z,53.20
2022-10-26T01:42:38.028Z,53.01
2022-10-26T01:45:12.903Z,52.91
2022-10-26T01:47:42.710Z,53.21
2022-10-26T01:50:14.081Z,52.90
2022-10-26T01:52:45.524Z,52.56
2022-10-26T01:55:39.951Z,52.51
2022-10-26T01:59:03.550Z,52.26
2022-10-26T02:01:37.296Z,52.57
2022-10-26T02:06:58.888Z,51.84
2022-10-26T02:09:47.375Z,52.07
2022-10-26T02:12:52.117Z,52.04
2022-10-26T02:15:35.258Z,52.14
2022-10-26T02:18:20.573Z,52.31
2022-10-26T02:20:57.144Z,51.62
2022-10-26T02:23:31.123Z,51.12
2022-10-26T02:26:03.738Z,51.10
2022-10-26T02:28:41.917Z,51.55
2022-10-26T02:31:15.950Z,50.97
2022-10-26T02:33:53.580Z,50.70
2022-10-26T02:36:30.935Z,51.17
2022-10-26T02:39:03.328Z,51.25
2022-10-26T02:41:36.765Z,50.75
2022-10-26T02:44:20.016Z,50.65
2022-10-26T02:46:50.838Z,50.84
2022-10-26T02:49:22.482Z,51.16
2022-10-26T02:51:59.391Z,51.10
2022-10-26T02:54:49.190Z,50.74
2022-10-26T02:57:32.452Z,50.45
2022-10-26T03:00:05.442Z,51.03
2022-10-26T03:02:35.543Z,50.72
2022-10-26T03:05:15.087Z,50.71
2022-10-26T03:07:45.206Z,50.93
2022-10-26T03:13:01.945Z,50.25
2022-10-26T03:15:31.946Z,50.60
2022-10-26T03:18:01.948Z,50.31
2022-10-26T03:20:33.195Z,50.55
2022-10-26T03:23:03.210Z,50.01
2022-10-26T03:25:33.334Z,49.97
2022-10-26T03:28:05.499Z,49.90
2022-10-26T03:30:35.746Z,49.71
2022-10-26T03:33:07.922Z,49.97
2022-10-26T03:35:38.828Z,49.37
2022-10-26T03:38:08.839Z,49.44
2022-10-26T03:40:38.962Z,49.20
2022-10-26T03:43:08.889Z,49.37
2022-10-26T03:45:40.405Z,49.21
2022-10-26T03:48:10.529Z,49.08
2022-10-26T03:50:40.787Z,49.56
2022-10-26T03:53:12.219Z,49.21
2022-10-26T03:55:45.958Z,49.11
2022-10-26T03:58:17.903Z,49.22
2022-10-26T04:00:49.923Z,49.53
2022-10-26T04:03:20.991Z,49.35
2022-10-26T04:05:51.574Z,49.50
2022-10-26T04:08:21.747Z,49.66
2022-10-26T04:10:51.790Z,49.58
2022-10-26T04:13:23.843Z,49.04
2022-10-26T04:15:54.161Z,49.29
2022-10-26T04:18:24.642Z,49.02
2022-10-26T04:20:53.959Z,49.27
2022-10-26T04:26:02.271Z,49.57
2022-10-26T04:28:32.564Z,49.14
2022-10-26T04:31:02.633Z,49.83
2022-10-26T04:33:33.415Z,49.29
2022-10-26T04:36:05.704Z,49.44
2022-10-26T04:38:35.794Z,49.66
2022-10-26T04:41:05.959Z,49.75
2022-10-26T04:43:36.545Z,50.19
2022-10-26T04:46:06.647Z,50.27
2022-10-26T04:48:36.719Z,51.13
2022-10-26T04:51:06.671Z,50.64
2022-10-26T04:53:37.136Z,51.38
2022-10-26T04:56:07.924Z,51.06
2022-10-26T04:58:38.231Z,51.70
2022-10-26T05:01:08.646Z,51.95
2022-10-26T05:03:39.780Z,53.71
2022-10-26T05:06:10.333Z,52.45
2022-10-26T05:08:40.430Z,53.13
2022-10-26T05:11:10.477Z,52.77
2022-10-26T05:13:40.544Z,52.68
2022-10-26T05:16:11.169Z,53.74
2022-10-26T05:18:41.425Z,52.79
2022-10-26T05:21:12.580Z,52.86
2022-10-26T05:23:42.644Z,52.95
2022-10-26T05:26:12.652Z,53.05
2022-10-26T05:28:42.522Z,53.38
2022-10-26T05:31:12.497Z,53.13
2022-10-26T05:33:43.638Z,54.44
2022-10-26T05:36:14.112Z,54.77
2022-10-26T05:38:45.206Z,53.98
2022-10-26T05:41:16.014Z,53.01
2022-10-26T05:43:48.957Z,52.98
2022-10-26T05:46:19.017Z,52.48
2022-10-26T05:48:49.215Z,52.54
2022-10-26T05:51:19.311Z,52.59
2022-10-26T05:53:49.868Z,53.81
2022-10-26T05:56:35.667Z,52.82
2022-10-26T05:59:12.821Z,53.94
2022-10-26T06:02:25.211Z,52.93
2022-10-26T06:04:59.243Z,53.96
2022-10-26T06:07:29.640Z,54.38
2022-10-26T06:10:00.035Z,54.97
2022-10-26T06:12:30.617Z,55.70
2022-10-26T06:15:01.012Z,54.58
2022-10-26T06:17:55.229Z,53.66
2022-10-26T06:20:41.234Z,53.99
2022-10-26T06:23:23.751Z,54.39
2022-10-26T06:26:02.581Z,53.15
2022-10-26T06:28:50.892Z,53.85
2022-10-26T06:31:21.784Z,54.41
2022-10-26T06:33:52.746Z,54.85
2022-10-26T06:36:32.545Z,54.84
2022-10-26T06:39:08.594Z,55.20
2022-10-26T06:41:40.016Z,54.89
2022-10-26T06:44:21.472Z,54.84
2022-10-26T06:47:33.915Z,55.47
2022-10-26T06:50:12.733Z,54.81
2022-10-26T06:53:27.116Z,54.14
2022-10-26T06:56:00.323Z,54.80
2022-10-26T06:58:36.784Z,55.07
2022-10-26T07:01:07.342Z,55.41
2022-10-26T07:03:37.351Z,55.05
2022-10-26T07:06:09.358Z,55.51
2022-10-26T07:08:39.598Z,54.73
2022-10-26T07:11:10.692Z,54.69
2022-10-26T07:13:40.738Z,54.95
2022-10-26T07:16:11.632Z,55.62
2022-10-26T07:18:41.838Z,56.72
2022-10-26T07:21:12.952Z,56.30
2022-10-26T07:23:43.117Z,55.90
2022-10-26T07:26:13.196Z,55.86
2022-10-26T07:28:43.430Z,55.70
2022-10-26T07:31:13.494Z,55.98
2022-10-26T07:33:44.161Z,57.12
2022-10-26T07:36:16.122Z,55.43
2022-10-26T07:38:46.536Z,56.41
2022-10-26T07:41:34.415Z,54.22
2022-10-26T07:44:06.926Z,54.61
2022-10-26T07:46:37.972Z,55.30
2022-10-26T07:49:07.989Z,56.47
2022-10-26T07:51:38.033Z,55.33
2022-10-26T07:54:08.070Z,56.02
2022-10-26T07:56:38.155Z,55.07
2022-10-26T07:59:08.597Z,55.12
2022-10-26T08:01:39.060Z,55.79
2022-10-26T08:04:09.296Z,55.46
2022-10-26T08:06:39.465Z,55.10
2022-10-26T08:09:09.630Z,55.92
2022-10-26T08:11:39.633Z,55.16
2022-10-26T08:14:10.539Z,56.36
2022-10-26T08:16:43.546Z,55.36
2022-10-26T08:19:14.225Z,54.93
2022-10-26T08:21:44.437Z,55.02
2022-10-26T08:24:14.615Z,55.88
2022-10-26T08:26:44.965Z,54.11
2022-10-26T08:29:15.390Z,54.56
2022-10-26T08:31:46.501Z,54.58
2022-10-26T08:34:17.356Z,54.34
2022-10-26T08:36:47.770Z,54.46
2022-10-26T08:39:18.160Z,54.62
2022-10-26T08:41:54.774Z,54.74
2022-10-26T08:44:35.240Z,54.38
2022-10-26T08:47:44.521Z,53.49
2022-10-26T08:50:33.819Z,53.12
2022-10-26T08:53:12.143Z,53.84
2022-10-26T08:56:06.684Z,53.88
2022-10-26T08:58:44.616Z,53.98
2022-10-26T09:01:15.477Z,54.63
2022-10-26T09:03:45.979Z,54.37
2022-10-26T09:06:31.847Z,54.08
2022-10-26T09:09:23.762Z,53.78
2022-10-26T09:12:09.584Z,53.32
2022-10-26T09:15:00.781Z,54.30
2022-10-26T09:17:35.454Z,53.75
2022-10-26T09:20:40.070Z,53.81
2022-10-26T09:23:33.448Z,53.49
2022-10-26T09:26:06.337Z,54.23
2022-10-26T09:28:39.523Z,53.88
2022-10-26T09:31:16.976Z,54.04
2022-10-26T09:33:47.090Z,55.43
2022-10-26T09:36:24.934Z,54.60
2022-10-26T09:39:28.205Z,54.24
2022-10-26T09:42:32.952Z,53.86
2022-10-26T09:45:28.044Z,55.45
2022-10-26T09:48:37.437Z,55.76
2022-10-26T09:51:09.355Z,55.35
2022-10-26T09:53:39.693Z,55.03
2022-10-26T09:56:15.229Z,54.59
2022-10-26T09:59:02.577Z,54.59
2022-10-26T10:01:38.142Z,55.55
2022-10-26T10:04:13.956Z,55.33
2022-10-26T10:06:45.064Z,55.87
2022-10-26T10:09:21.362Z,56.11
2022-10-26T10:12:00.693Z,54.39
2022-10-26T10:14:37.424Z,54.42
2022-10-26T10:17:22.763Z,54.14
2022-10-26T10:19:55.569Z,55.81
2022-10-26T10:22:28.936Z,55.44
2022-10-26T10:25:02.926Z,55.00
2022-10-26T10:27:34.786Z,55.21
2022-10-26T10:30:25.064Z,54.60
2022-10-26T10:33:15.850Z,54.74
2022-10-26T10:35:55.235Z,55.90
2022-10-26T10:38:25.350Z,56.71
2022-10-26T10:41:05.961Z,55.57
2022-10-26T10:43:37.356Z,55.96
2022-10-26T10:46:07.438Z,56.10
2022-10-26T10:48:39.494Z,56.01
2022-10-26T10:51:14.286Z,56.17
2022-10-26T10:53:50.438Z,56.73
2022-10-26T10:56:37.412Z,56.43
2022-10-26T10:59:29.735Z,55.50
2022-10-26T11:02:35.861Z,58.23
2022-10-26T11:05:08.502Z,57.92
2022-10-26T11:07:55.691Z,56.17
2022-10-26T11:10:33.080Z,56.46
2022-10-26T11:13:13.407Z,56.17
2022-10-26T11:15:46.869Z,56.35
2022-10-26T11:18:21.033Z,55.74
2022-10-26T11:21:03.609Z,55.89
2022-10-26T11:23:48.449Z,55.84
2022-10-26T11:26:45.157Z,55.23
2022-10-26T11:29:48.554Z,54.65
2022-10-26T11:32:27.489Z,55.56
2022-10-26T11:35:08.791Z,55.29
2022-10-26T11:37:54.975Z,56.18
2022-10-26T11:40:46.130Z,55.13
2022-10-26T11:43:19.072Z,55.84
2022-10-26T11:46:07.609Z,56.13
2022-10-26T11:48:45.936Z,55.32
2022-10-26T11:51:43.352Z,54.83
2022-10-26T11:54:31.441Z,54.72
2022-10-26T11:57:03.493Z,54.62
2022-10-26T11:59:39.477Z,56.02
2022-10-26T12:02:17.741Z,55.11
2022-10-26T12:04:56.666Z,55.39
2022-10-26T12:07:31.902Z,55.47
2022-10-26T12:10:05.917Z,55.04
2022-10-26T12:13:06.914Z,55.05
2022-10-26T12:16:04.683Z,54.66
2022-10-26T12:18:55.632Z,54.88
2022-10-26T12:21:32.802Z,54.56
2022-10-26T12:24:04.681Z,54.53
2022-10-26T12:26:37.550Z,55.18
2022-10-26T12:29:08.565Z,54.65
2022-10-26T12:31:39.855Z,54.23
2022-10-26T12:34:24.325Z,53.96
2022-10-26T12:36:57.519Z,53.95
2022-10-26T12:39:39.585Z,53.82
2022-10-26T12:42:30.722Z,53.74
2022-10-26T12:45:02.153Z,54.18
2022-10-26T12:47:32.431Z,54.25
2022-10-26T12:50:02.523Z,52.74
2022-10-26T12:52:56.501Z,52.68
2022-10-26T12:55:48.031Z,52.62
2022-10-26T12:58:42.412Z,52.85
2022-10-26T13:01:31.026Z,52.23
2022-10-26T13:04:13.689Z,52.48
2022-10-26T13:07:08.750Z,52.35
2022-10-26T13:09:39.958Z,52.62
2022-10-26T13:12:10.647Z,52.44
2022-10-26T13:15:00.722Z,52.24
2022-10-26T13:20:20.498Z,51.95
2022-10-26T13:22:51.493Z,52.32
2022-10-26T13:25:28.875Z,52.13
2022-10-26T13:28:11.466Z,52.53
2022-10-26T13:30:47.234Z,52.41
2022-10-26T13:33:23.455Z,52.59
2022-10-26T13:35:57.883Z,52.54
2022-10-26T13:38:36.282Z,51.76
2022-10-26T13:41:16.079Z,52.11
2022-10-26T13:43:47.991Z,50.92
2022-10-26T13:46:29.622Z,50.95
2022-10-26T13:51:50.380Z,50.64
2022-10-26T13:54:34.125Z,50.59
2022-10-26T13:57:21.452Z,50.38
2022-10-26T13:59:55.629Z,50.78
2022-10-26T14:02:30.224Z,50.37
2022-10-26T14:05:07.518Z,49.95
2022-10-26T14:07:58.578Z,50.42
2022-10-26T14:10:47.591Z,50.47
2022-10-26T14:13:23.392Z,50.02
2022-10-26T14:15:53.256Z,48.99
2022-10-26T14:18:30.394Z,49.59
2022-10-26T14:21:06.971Z,49.89
2022-10-26T14:23:37.383Z,50.70
2022-10-26T14:26:08.655Z,50.79
2022-10-26T14:28:49.061Z,50.73
2022-10-26T14:31:35.415Z,50.74
2022-10-26T14:34:08.458Z,50.59
2022-10-26T14:36:49.029Z,50.32
2022-10-26T14:39:25.496Z,50.33
2022-10-26T14:41:58.537Z,50.12
2022-10-26T14:44:29.607Z,50.57
2022-10-26T14:47:00.203Z,50.00
2022-10-26T14:49:31.297Z,50.24
2022-10-26T14:52:09.309Z,49.68
2022-10-26T14:54:41.377Z,49.21
2022-10-26T14:57:36.674Z,49.97
2022-10-26T15:00:17.585Z,49.77
2022-10-26T15:05:34.725Z,50.01
2022-10-26T15:08:06.136Z,48.55
2022-10-26T15:10:42.377Z,48.61
2022-10-26T15:13:22.816Z,49.30
2022-10-26T15:15:58.342Z,49.16
2022-10-26T15:18:36.822Z,49.05
2022-10-26T15:21:31.461Z,49.67
2022-10-26T15:24:03.202Z,49.67
2022-10-26T15:26:34.158Z,50.26
2022-10-26T15:29:04.627Z,50.22
2022-10-26T15:31:36.478Z,49.84
2022-10-26T15:34:07.726Z,49.42
2022-10-26T15:36:45.965Z,49.63
2022-10-26T15:39:16.371Z,49.66
2022-10-26T15:41:50.851Z,50.03
2022-10-26T15:44:24.004Z,50.51
2022-10-26T15:46:56.216Z,49.92
2022-10-26T15:49:26.664Z,50.67
2022-10-26T15:51:57.302Z,50.34
2022-10-26T15:54:27.558Z,50.55
2022-10-26T15:56:58.351Z,50.69
2022-10-26T15:59:27.762Z,50.72
2022-10-26T16:01:58.584Z,50.35
2022-10-26T16:04:29.200Z,50.06
2022-10-26T16:07:02.791Z,49.65
2022-10-26T16:09:33.380Z,49.50
2022-10-26T16:12:04.440Z,49.87
2022-10-26T16:14:53.324Z,49.46
2022-10-26T16:17:27.546Z,49.27
2022-10-26T16:19:58.250Z,49.11
2022-10-26T16:22:29.053Z,49.48
2022-10-26T16:24:59.701Z,48.96
2022-10-26T16:27:29.668Z,50.00
2022-10-26T16:29:59.576Z,49.19
2022-10-26T16:32:29.906Z,49.19
2022-10-26T16:35:01.058Z,49.69
2022-10-26T16:37:32.782Z,49.31
2022-10-26T16:40:03.435Z,48.93
2022-10-26T16:42:34.626Z,48.88
2022-10-26T16:45:06.547Z,49.30
2022-10-26T16:47:38.253Z,49.01
2022-10-26T16:50:10.558Z,48.24
2022-10-26T16:52:41.377Z,48.60
2022-10-26T16:55:12.057Z,48.47
2022-10-26T16:57:42.297Z,48.88
2022-10-26T17:00:13.794Z,48.08
2022-10-26T17:02:44.874Z,48.19
2022-10-26T17:05:14.903Z,48.50
2022-10-26T17:07:45.444Z,49.13
2022-10-26T17:10:15.666Z,48.58
2022-10-26T17:12:47.150Z,48.76
2022-10-26T17:15:19.878Z,49.55
2022-10-26T17:17:50.606Z,49.28
2022-10-26T17:20:21.734Z,49.75
2022-10-26T17:22:53.145Z,48.77
2022-10-26T17:25:23.338Z,49.33
2022-10-26T17:27:53.791Z,49.42
2022-10-26T17:30:24.834Z,48.62
2022-10-26T17:32:54.130Z,48.72
2022-10-26T17:35:24.096Z,48.93
2022-10-26T17:37:54.451Z,48.79
2022-10-26T17:40:26.008Z,48.95
2022-10-26T17:42:57.001Z,48.81
2022-10-26T17:45:27.985Z,48.84
2022-10-26T17:47:57.945Z,48.73
2022-10-26T17:50:28.167Z,48.64
2022-10-26T17:52:59.234Z,49.12
2022-10-26T17:55:30.208Z,48.64
2022-10-26T17:58:00.417Z,48.17
2022-10-26T18:00:31.363Z,48.73
2022-10-26T18:03:03.294Z,48.35
2022-10-26T18:05:33.603Z,48.79
2022-10-26T18:08:04.367Z,46.90
2022-10-26T18:10:37.807Z,47.65
2022-10-26T18:13:09.945Z,47.09
2022-10-26T18:15:40.534Z,47.10
2022-10-26T18:18:12.882Z,47.16
2022-10-26T18:20:44.689Z,46.92
2022-10-26T18:23:14.760Z,47.66
2022-10-26T18:25:44.912Z,46.83
2022-10-26T18:28:15.168Z,46.42
2022-10-26T18:30:46.834Z,47.12
2022-10-26T18:33:18.189Z,46.93
2022-10-26T18:35:49.122Z,46.90
2022-10-26T18:38:19.291Z,46.20
2022-10-26T18:40:55.031Z,46.58
2022-10-26T18:43:26.450Z,46.38
2022-10-26T18:46:09.509Z,46.20
2022-10-26T18:48:40.091Z,45.73
2022-10-26T18:51:17.374Z,46.10
2022-10-26T18:53:49.780Z,46.22
2022-10-26T18:56:25.255Z,46.80
2022-10-26T18:59:00.105Z,47.14
2022-10-26T19:01:35.578Z,46.43
2022-10-26T19:04:10.206Z,46.83
2022-10-26T19:06:50.149Z,47.05
2022-10-26T19:09:21.141Z,46.72
2022-10-26T19:11:51.824Z,46.62
2022-10-26T19:14:23.152Z,46.49
2022-10-26T19:16:55.615Z,45.56
2022-10-26T19:19:28.225Z,46.90
2022-10-26T19:22:01.621Z,46.81
2022-10-26T19:24:32.867Z,46.73
2022-10-26T19:27:03.813Z,46.68
2022-10-26T19:29:34.188Z,46.56
2022-10-26T19:32:05.461Z,46.25
2022-10-26T19:34:35.792Z,46.22
2022-10-26T19:37:07.776Z,46.00
2022-10-26T19:39:38.038Z,46.55
2022-10-26T19:42:09.436Z,46.25
2022-10-26T19:44:40.615Z,45.72
2022-10-26T19:47:11.133Z,44.58
2022-10-26T19:49:42.381Z,45.98
2022-10-26T19:52:13.720Z,46.86
2022-10-26T19:54:43.869Z,45.79
2022-10-26T19:57:13.979Z,45.30
2022-10-26T19:59:44.976Z,45.57
2022-10-26T20:02:16.558Z,45.75
2022-10-26T20:04:47.927Z,45.67
2022-10-26T20:07:20.101Z,45.50
2022-10-26T20:09:51.147Z,45.58
2022-10-26T20:12:23.358Z,45.99
2022-10-26T20:14:55.372Z,46.10
2022-10-26T20:17:29.199Z,47.12
2022-10-26T20:20:00.761Z,46.34
2022-10-26T20:22:31.123Z,45.99
2022-10-26T20:25:01.798Z,46.27
2022-10-26T20:27:32.958Z,45.78
2022-10-26T20:30:04.964Z,45.92
2022-10-26T20:32:35.916Z,45.16
2022-10-26T20:35:07.673Z,46.05
2022-10-26T20:37:38.590Z,45.04
2022-10-26T20:40:10.354Z,45.72
2022-10-26T20:42:41.656Z,45.22
2022-10-26T20:45:31.983Z,46.07
2022-10-26T20:48:03.830Z,46.34
2022-10-26T20:50:35.286Z,46.11
2022-10-26T20:53:36.495Z,46.48
2022-10-26T20:56:16.295Z,46.67
2022-10-26T20:58:47.148Z,46.99
2022-10-26T21:01:28.599Z,46.86
2022-10-26T21:04:01.685Z,46.82
2022-10-26T21:06:41.828Z,47.28
2022-10-26T21:09:12.747Z,47.13
2022-10-26T21:11:44.895Z,47.16
2022-10-26T21:14:16.449Z,47.56
2022-10-26T21:16:46.572Z,47.58
2022-10-26T21:19:17.794Z,47.48
2022-10-26T21:21:49.793Z,47.44
2022-10-26T21:24:21.253Z,47.46
2022-10-26T21:26:52.562Z,47.72
2022-10-26T21:29:24.007Z,47.34
2022-10-26T21:31:54.172Z,47.20
2022-10-26T21:34:25.630Z,47.79
2022-10-26T21:36:56.849Z,47.71
2022-10-26T21:39:27.815Z,47.85
2022-10-26T21:41:58.141Z,48.13
2022-10-26T21:44:43.796Z,47.62
2022-10-26T21:47:15.295Z,47.75
2022-10-26T21:49:45.920Z,47.59
2022-10-26T21:52:16.164Z,47.63
2022-10-26T21:54:46.153Z,48.18
2022-10-26T21:57:17.084Z,47.82
2022-10-26T21:59:47.463Z,47.60
2022-10-26T22:02:17.563Z,47.78
2022-10-26T22:04:48.603Z,47.45
2022-10-26T22:07:20.981Z,48.44
2022-10-26T22:10:09.695Z,48.03
2022-10-26T22:12:41.702Z,48.41
2022-10-26T22:15:12.305Z,48.29
2022-10-26T22:17:42.964Z,49.07
2022-10-26T22:20:14.706Z,48.60
2022-10-26T22:22:48.248Z,48.16
2022-10-26T22:25:18.714Z,48.51
2022-10-26T22:27:50.047Z,48.73
2022-10-26T22:30:20.276Z,48.77
2022-10-26T22:32:51.444Z,48.51
2022-10-26T22:35:29.496Z,49.42
2022-10-26T22:38:00.074Z,48.98
2022-10-26T22:40:29.428Z,48.61
2022-10-26T22:42:59.588Z,49.23
2022-10-26T22:45:30.654Z,48.76
2022-10-26T22:48:00.610Z,48.57
2022-10-26T22:50:31.487Z,48.44
2022-10-26T22:53:02.447Z,48.34
2022-10-26T22:55:34.007Z,47.97
2022-10-26T22:58:04.804Z,47.90
2022-10-26T23:00:36.223Z,48.20
2022-10-26T23:03:08.283Z,47.96
2022-10-26T23:05:38.608Z,48.25
2022-10-26T23:08:08.584Z,47.51
2022-10-26T23:10:40.044Z,48.06
2022-10-26T23:13:10.643Z,48.96
2022-10-26T23:15:41.555Z,49.00
2022-10-26T23:18:11.501Z,49.10
2022-10-26T23:20:41.517Z,48.42
2022-10-26T23:23:12.485Z,48.71
2022-10-26T23:25:43.070Z,48.56
2022-10-26T23:28:14.869Z,48.92
2022-10-26T23:30:49.638Z,48.78
2022-10-26T23:33:20.661Z,48.68
2022-10-26T23:35:53.800Z,48.71
2022-10-26T23:38:24.122Z,47.79
2022-10-26T23:40:56.099Z,48.63
2022-10-26T23:43:30.318Z,48.27
2022-10-26T23:46:01.947Z,48.38
2022-10-26T23:48:33.263Z,48.87
2022-10-26T23:51:04.545Z,49.17
2022-10-26T23:53:35.630Z,48.38
2022-10-26T23:56:06.914Z,48.16
2022-10-26T23:58:37.903Z,48.37
